Station info - map view · info · telemetry · weather · raw · status · beacons · messages · bulletins · browse · moving · my account
Callsign, ship name or locator: Clear       
It is possible to search using wildcards (*?) after a prefix. Example: OH*
APRS station HB9FLB-9 - show graphs
Map loading...
Comment: 1e^.
Mic-E message: Off duty
Last status: anyfrog+GM950+ByonicsGP2, 0.0
Location: 47°02.14' N 8°18.18' E - locator JN47DA68IN - show map - static map
1.3 miles East bearing 89° from Kriens, Amt Luzern, Lucerne, Switzerland [?]
2.1 miles Southeast bearing 118° from Littau, Amt Luzern, Lucerne, Switzerland
25.6 miles Southwest bearing 207° from Zürich, Bezirk Zürich, Zurich, Switzerland
69.6 miles South bearing 162° from Freiburg, Regierungsbezirk Freiburg, Baden-Württemberg, Germany
Last position: 2018-11-15 07:11:40 EST (3h25m ago)
2018-11-15 13:11:40 CET local time at Kriens, Switzerland [?]
Altitude: 1509 ft
Course: 270°
Speed: 3 MPH
Device: Unknown: Other Mic-E
Last path: HB9FLB-9>TWPRQ4 via WIDE2-2,qAR,HB9FX-10 (good)
Positions stored: 5164
Packet rate: 83 seconds between packets on average during 4046 seconds.
Other SSIDs: HB9FLB-12
Stations near current position of HB9FLB-9 - show more
callsign distance last heard - EST      callsign distance last heard - EST
438.875-L517.5 yards 150°2018-11-15 10:33:39 HB9DLD-70.4 miles 238°2018-11-11 03:57:26
HB9TLX-B0.8 miles 186°2018-11-04 16:55:12 HB9TLX B0.8 miles 186°2018-11-04 16:55:02
HB9TLX0.8 miles 186°2018-11-11 10:26:43 HB9AW-80.9 miles 216°2018-11-15 10:23:12
JJ0NNU-71.1 miles 21°2018-11-04 09:14:19 JJ0NNU-131.1 miles 23°2018-11-10 04:21:01
JJ0NNU-101.1 miles 23°2018-11-10 06:53:13 JJ0NNU-151.2 miles 14°2018-11-04 09:02:45
HB9LU-101.5 miles 293°2018-11-15 10:36:18 HB9DBK-91.5 miles 261°2018-11-15 05:50:48
HB9LU B1.5 miles 293°2018-11-15 10:34:23 HB9LU-B1.5 miles 293°2018-11-15 10:34:33
HB9DBK B1.5 miles 261°2018-10-31 11:05:36 HB9DBK-B1.5 miles 261°2018-10-31 11:05:46
HB9THJ-11.6 miles 345°2018-11-15 10:30:37 Spital LU1.6 miles 350°2018-11-15 10:33:40
HB9GKC1.6 miles 338°2018-11-10 06:53:25 JJ0NNU-31.9 miles 7°2018-11-11 05:13:15
Stations which heard HB9FLB-9 directly on radio –
callsign pkts first heard - EST last heard longest (tx => rx) longest at - EST
OE9XPT 1 2018-11-01 03:28:43 2018-11-01 03:28:43 JN47QQ > JN47WB 47.4 miles 152° 2018-11-01 03:28:43
HB9ZF-1 20 2018-11-01 01:22:44 2018-11-15 06:14:52 JN47CC > JN47KG 32.8 miles 65° 2018-11-15 06:14:52
DB0FIG 18 2018-11-01 03:24:12 2018-11-01 13:22:51 JN47QP > JN47RQ 4.2 miles 68° 2018-11-01 03:24:12
HB9LU-10 41 2018-11-01 01:13:27 2018-11-15 07:11:11 JN47GK > JN47DB 29.3 miles 204° 2018-11-01 14:51:24
OE9XVI 10 2018-11-01 03:08:40 2018-11-01 13:47:31 JN47NT > JN47TF 45.7 miles 152° 2018-11-01 13:47:31
HB3YGT-10 3 2018-11-01 14:28:07 2018-11-01 14:35:26 JN47IM > JN47LN 13.0 miles 69° 2018-11-01 14:35:26
HB9ZF-3 22 2018-11-01 01:56:12 2018-11-09 11:31:50 JN47DA > JN47HL 35.4 miles 28° 2018-11-09 11:31:50
HB9BB 10 2018-11-01 03:06:03 2018-11-01 13:02:26 JN47NS > JN47RD 45.5 miles 163° 2018-11-01 03:06:03
HB9AW-10 11 2018-11-01 01:11:18 2018-11-15 06:10:16 JN47FJ > JN47AB 31.0 miles 220° 2018-11-01 01:49:01
HB9ZZ-1 11 2018-11-01 01:24:20 2018-11-01 15:04:14 JN47FE > JN47GJ 15.1 miles 22° 2018-11-01 01:24:20
HB9TG 3 2018-11-01 14:22:59 2018-11-01 14:24:23 JN47HP > JN47MM 19.3 miles 116° 2018-11-01 14:22:59
DL7GAI-7 19 2018-11-01 02:58:41 2018-11-01 13:46:16 JN47MU > JN47OQ 12.7 miles 145° 2018-11-01 02:58:41
DB0TIT-10 1 2018-11-01 02:26:59 2018-11-01 02:26:59 JN47HP > JN47CW 28.7 miles 317° 2018-11-01 02:26:59
DB0WBD-10 4 2018-11-01 01:38:53 2018-11-01 14:49:23 JN47FI > JN47ET 31.8 miles 353° 2018-11-01 01:38:53
DM0SAT-10 38 2018-11-01 02:21:46 2018-11-01 14:59:05 JN47EJ > JN47JS 32.7 miles 36° 2018-11-01 14:59:05
HB9FLD-11 23 2018-11-01 15:21:51 2018-11-15 07:11:26 JN47EC > JN47CA 10.8 miles 230° 2018-11-01 15:21:51
DB0WV-10 19 2018-11-01 01:31:48 2018-11-01 13:35:02 JN47FH > JN47QT 58.4 miles 51° 2018-11-01 01:31:48
DH1GAP-10 10 2018-11-01 02:46:29 2018-11-01 13:54:33 JN47RQ > JN47LU 25.9 miles 292° 2018-11-01 13:13:49
DB0TOD-10 10 2018-11-01 01:23:45 2018-11-01 15:36:56 JN47DB > JN37XS 50.0 miles 344° 2018-11-01 15:36:56
DO9JM-13 19 2018-11-01 03:17:07 2018-11-01 13:15:30 JN47PQ > JN47TO 16.5 miles 116° 2018-11-01 03:17:07
HB9FXJ-10 1 2018-11-01 03:04:23 2018-11-01 03:04:23 JN47NS > JN47NN 14.4 miles 185° 2018-11-01 03:04:23
HB9CF-1 3 2018-11-01 13:46:31 2018-11-08 06:59:17 JN47NT > JN46GP 83.7 miles 199° 2018-11-01 13:46:31
HB9RF-1 50 2018-11-01 01:13:47 2018-11-15 07:10:08 JN47FJ > JN47FE 15.6 miles 179° 2018-11-01 14:57:29
HB9EUE-1 2 2018-11-01 01:42:57 2018-11-01 01:43:58 JN47FJ > JN47DK 5.2 miles 304° 2018-11-01 01:42:57
HB9FX-10 6 2018-11-01 15:36:04 2018-11-15 07:11:40 JN47DA > JN37XH 24.3 miles 321° 2018-11-15 07:11:40
HB9NF-10 1 2018-11-01 02:00:16 2018-11-01 02:00:16 JN47GK > JN47KJ 18.3 miles 100° 2018-11-01 02:00:16
DB0LC-1 45 2018-11-01 03:03:57 2018-11-01 13:46:33 JN47NT > JN47WN 35.5 miles 115° 2018-11-01 13:46:33
HB9LU-11 28 2018-11-01 15:07:50 2018-11-15 07:10:28 JN47FG > JN46EV 26.2 miles 186° 2018-11-01 15:07:50
HB9ARI-4 1 2018-11-01 14:56:15 2018-11-01 14:56:15 JN47FJ > JN37NC 66.0 miles 250° 2018-11-01 14:56:15
HB9TF-1 2 2018-11-01 01:31:31 2018-11-01 01:46:01 JN47FG > JN47GJ 9.2 miles 46° 2018-11-01 01:31:31
DB2GM-6 1 2018-11-01 13:55:34 2018-11-01 13:55:34 JN47LU > JN47KS 4.7 miles 218° 2018-11-01 13:55:34
HB9FEF-11 3 2018-11-01 15:20:03 2018-11-15 07:07:44 JN47DA > JN37VL 40.2 miles 321° 2018-11-15 07:07:44
HB9GWL-10 2 2018-11-01 02:29:02 2018-11-01 14:21:11 JN47HQ > JN47HP 3.2 miles 211° 2018-11-01 14:21:11
HB9FDZ 7 2018-11-01 03:05:28 2018-11-01 13:29:53 JN47NS > JN47PK 24.1 miles 169° 2018-11-01 03:05:28
OE9GHV-10 30 2018-11-01 03:01:43 2018-11-01 13:46:54 JN47NT > JN47WK 42.5 miles 127° 2018-11-01 03:01:43
HB9FID-10 5 2018-11-01 15:22:03 2018-11-15 01:11:59 JN47DA > JN47AE 15.7 miles 317° 2018-11-15 01:11:59

Only position packets which were originated by the station are shown here. The range statistics show some extra long hops, because some digipeaters do not correctly add themselves to the digipeater path. Please check the raw packets.
About this site
This page shows real-time information collected from the Automatic Position Reporting System Internet network (APRS-IS). APRS is used by amateur (ham) radio operators to transmit real-time position information, weather data, telemetry and messages over the radio. A vehicle equipped with a GPS receiver, a VHF transmitter or HF transceiver and a small computer device called a tracker transmits it's location, speed and course in a small data packet, which is then received by a nearby iGate receiving site which forwards the packet on the Internet. Systems connected to the Internet can send information on the APRS-IS without a radio transmitter, or collect and display information transmitted anywhere in the world.
FAQ · Blog · Discussion group · Linking to aprs.fi · AIS sites · Service status · Database statistics · Advertising on aprs.fi · Technical details · API · Change log · Planned changes · Credits and thanks · Terms Of Service · iPhone/iPad APRS